createdAt,value
2019-01-06T00:00:55.049Z,101260.20
2019-01-06T00:06:26.431Z,101263.30
2019-01-06T00:11:55.222Z,101255.17
2019-01-06T00:17:32.105Z,101271.64
2019-01-06T00:23:04.378Z,101273.91
2019-01-06T00:28:25.962Z,101279.02
2019-01-06T00:33:50.151Z,101279.07
2019-01-06T00:39:10.430Z,101288.76
2019-01-06T00:44:25.319Z,101293.95
2019-01-06T00:50:02.128Z,101288.91
2019-01-06T00:55:23.650Z,101298.11
2019-01-06T01:00:51.274Z,101301.04
2019-01-06T01:06:20.840Z,101310.36
2019-01-06T01:11:42.420Z,101310.36
2019-01-06T01:17:02.857Z,101315.06
2019-01-06T01:22:27.014Z,101326.80
2019-01-06T01:27:51.286Z,101343.75
2019-01-06T01:33:25.225Z,101342.96
2019-01-06T01:38:45.591Z,101349.35
2019-01-06T01:44:19.480Z,101356.55
2019-01-06T01:49:40.103Z,101354.80
2019-01-06T01:55:04.582Z,101351.14
2019-01-06T02:00:25.464Z,101352.84
2019-01-06T02:05:45.847Z,101352.84
2019-01-06T02:11:08.983Z,101357.41
2019-01-06T02:16:30.618Z,101359.16
2019-01-06T02:21:50.579Z,101363.67
2019-01-06T02:27:14.750Z,101352.91
2019-01-06T02:32:42.583Z,101360.86
2019-01-06T02:38:10.347Z,101366.50
2019-01-06T02:43:31.209Z,101365.48
2019-01-06T02:48:48.033Z,101367.78
2019-01-06T02:54:10.378Z,101365.48
2019-01-06T02:59:30.466Z,101370.61
2019-01-06T03:05:00.925Z,101372.17
2019-01-06T03:10:26.263Z,101378.00
2019-01-06T03:15:48.139Z,101382.55
2019-01-06T03:21:15.669Z,101380.20
2019-01-06T03:26:53.741Z,101378.91
2019-01-06T03:32:09.833Z,101378.91
2019-01-06T03:37:30.074Z,101384.32
2019-01-06T03:43:05.695Z,101380.80
2019-01-06T03:48:28.295Z,101383.55
2019-01-06T03:54:04.921Z,101386.54
2019-01-06T03:59:20.449Z,101385.08
2019-01-06T04:04:40.934Z,101380.53
2019-01-06T04:10:00.426Z,101381.38
2019-01-06T04:15:20.958Z,101386.23
2019-01-06T04:20:39.833Z,101385.09
2019-01-06T04:26:00.127Z,101391.39
2019-01-06T04:31:31.912Z,101386.88
2019-01-06T04:36:51.722Z,101399.34
2019-01-06T04:42:12.073Z,101415.67
2019-01-06T04:47:32.182Z,101426.87
2019-01-06T04:52:56.369Z,101426.87
2019-01-06T04:58:19.578Z,101429.89
2019-01-06T05:03:54.157Z,101433.41
2019-01-06T05:09:14.682Z,101437.39
2019-01-06T05:14:34.913Z,101440.70
2019-01-06T05:19:54.362Z,101439.36
2019-01-06T05:25:19.143Z,101450.03
2019-01-06T05:30:39.288Z,101459.22
2019-01-06T05:36:08.047Z,101461.58
2019-01-06T05:41:32.536Z,101463.50
2019-01-06T05:46:52.042Z,101464.70
2019-01-06T05:52:31.942Z,101468.42
2019-01-06T05:57:52.523Z,101474.50
2019-01-06T06:03:14.635Z,101475.83
2019-01-06T06:08:34.188Z,101471.09
2019-01-06T06:13:55.305Z,101473.17
2019-01-06T06:19:19.888Z,101473.54
2019-01-06T06:24:44.163Z,101480.86
2019-01-06T06:30:24.167Z,101469.27
2019-01-06T06:35:44.480Z,101469.27
2019-01-06T06:41:21.086Z,101490.94
2019-01-06T06:46:55.196Z,101490.94
2019-01-06T06:52:11.215Z,101493.42
2019-01-06T06:58:08.520Z,101501.40
2019-01-06T07:03:39.115Z,101503.64
2019-01-06T07:09:02.546Z,101514.11
2019-01-06T07:14:16.889Z,101516.20
2019-01-06T07:19:39.452Z,101525.69
2019-01-06T07:25:04.877Z,101531.56
2019-01-06T07:30:25.596Z,101535.84
2019-01-06T07:35:46.270Z,101540.97
2019-01-06T07:41:06.312Z,101547.32
2019-01-06T07:46:19.664Z,101554.45
2019-01-06T07:51:30.937Z,101557.40
2019-01-06T07:56:55.952Z,101559.13
2019-01-06T08:02:18.723Z,101565.37
2019-01-06T08:07:43.181Z,101570.91
2019-01-06T08:13:06.013Z,101576.01
2019-01-06T08:18:26.659Z,101583.81
2019-01-06T08:23:50.806Z,101593.11
2019-01-06T08:29:11.202Z,101587.30
2019-01-06T08:34:31.345Z,101596.68
2019-01-06T08:39:51.323Z,101597.06
2019-01-06T08:45:08.311Z,101603.23
2019-01-06T08:50:35.784Z,101610.66
2019-01-06T08:56:02.994Z,101611.05
2019-01-06T09:01:23.375Z,101613.29
2019-01-06T09:06:54.372Z,101616.23
2019-01-06T09:12:18.586Z,101616.42
2019-01-06T09:17:44.471Z,101627.44
2019-01-06T09:23:04.882Z,101626.30
2019-01-06T09:28:38.430Z,101640.19
2019-01-06T09:33:58.369Z,101636.64
2019-01-06T09:39:22.591Z,101631.94
2019-01-06T09:44:36.185Z,101628.29
2019-01-06T09:50:03.756Z,101630.45
2019-01-06T09:55:24.166Z,101630.45
2019-01-06T10:00:45.184Z,101626.89
2019-01-06T10:06:05.311Z,101627.05
2019-01-06T10:11:25.925Z,101628.78
2019-01-06T10:16:55.882Z,101624.70
2019-01-06T10:22:23.429Z,101626.77
2019-01-06T10:27:57.280Z,101631.08
2019-01-06T10:33:18.283Z,101633.77
2019-01-06T10:38:40.512Z,101628.44
2019-01-06T10:44:00.536Z,101630.21
2019-01-06T10:49:34.061Z,101630.86
2019-01-06T10:54:56.955Z,101629.36
2019-01-06T11:00:38.101Z,101625.84
2019-01-06T11:05:59.520Z,101621.85
2019-01-06T11:11:33.243Z,101619.31
2019-01-06T11:16:54.805Z,101613.22
2019-01-06T11:22:06.798Z,101622.55
2019-01-06T11:27:27.361Z,101621.33
2019-01-06T11:32:46.595Z,101616.80
2019-01-06T11:38:21.233Z,101622.42
2019-01-06T11:43:58.283Z,101617.61
2019-01-06T11:49:20.111Z,101612.23
2019-01-06T11:54:33.664Z,101597.29
2019-01-06T11:59:49.596Z,101598.10
2019-01-06T12:05:11.135Z,101599.23
2019-01-06T12:10:44.566Z,101600.31
2019-01-06T12:16:08.953Z,101601.13
2019-01-06T12:21:37.318Z,101595.50
2019-01-06T12:26:57.330Z,101596.62
2019-01-06T12:32:23.883Z,101595.20
2019-01-06T12:38:00.606Z,101588.93
2019-01-06T12:43:20.873Z,101592.77
2019-01-06T12:48:41.124Z,101584.30
2019-01-06T12:54:01.182Z,101581.56
2019-01-06T12:59:21.494Z,101579.98
2019-01-06T13:04:45.688Z,101592.92
2019-01-06T13:10:18.633Z,101595.37
2019-01-06T13:15:38.484Z,101596.78
2019-01-06T13:21:00.542Z,101589.56
2019-01-06T13:26:33.956Z,101598.13
2019-01-06T13:31:46.747Z,101598.69
2019-01-06T13:37:07.057Z,101607.73
2019-01-06T13:42:27.483Z,101612.11
2019-01-06T13:47:47.746Z,101619.59
2019-01-06T13:53:08.350Z,101614.79
2019-01-06T13:58:38.229Z,101618.26
2019-01-06T14:03:58.429Z,101623.05
2019-01-06T14:09:20.016Z,101623.21
2019-01-06T14:14:45.763Z,101630.06
2019-01-06T14:20:16.636Z,101633.25
2019-01-06T14:25:34.018Z,101633.74
2019-01-06T14:30:54.574Z,101629.73
2019-01-06T14:36:16.212Z,101630.69
2019-01-06T14:41:39.226Z,101630.77
2019-01-06T14:47:03.375Z,101631.70
2019-01-06T14:52:31.066Z,101641.84
2019-01-06T14:58:04.571Z,101635.70
2019-01-06T15:03:33.005Z,101639.18
2019-01-06T15:08:53.384Z,101642.99
2019-01-06T15:14:17.530Z,101651.64
2019-01-06T15:19:36.397Z,101640.28
2019-01-06T15:24:59.372Z,101644.53
2019-01-06T15:30:20.951Z,101645.83
2019-01-06T15:35:48.661Z,101653.06
2019-01-06T15:41:08.897Z,101657.52
2019-01-06T15:46:37.934Z,101658.89
2019-01-06T15:51:58.556Z,101660.55
2019-01-06T15:57:35.114Z,101656.19
2019-01-06T16:02:57.397Z,101656.79
2019-01-06T16:08:27.869Z,101657.52
2019-01-06T16:13:49.450Z,101654.89
2019-01-06T16:19:04.317Z,101666.92
2019-01-06T16:24:24.336Z,101662.07
2019-01-06T16:29:52.236Z,101662.61
2019-01-06T16:35:19.789Z,101667.97
2019-01-06T16:40:39.853Z,101670.72
2019-01-06T16:46:00.116Z,101667.09
2019-01-06T16:51:20.619Z,101672.50
2019-01-06T16:56:47.880Z,101676.41
2019-01-06T17:02:05.972Z,101676.88
2019-01-06T17:07:26.164Z,101679.72
2019-01-06T17:12:46.319Z,101679.91
2019-01-06T17:18:06.400Z,101674.19
2019-01-06T17:23:26.608Z,101672.20
2019-01-06T17:28:46.597Z,101677.13
2019-01-06T17:34:06.887Z,101672.91
2019-01-06T17:39:40.372Z,101677.53
2019-01-06T17:45:10.843Z,101680.85
2019-01-06T17:50:31.370Z,101672.48
2019-01-06T17:56:04.321Z,101681.41
2019-01-06T18:01:35.565Z,101685.25
2019-01-06T18:06:59.528Z,101682.95
2019-01-06T18:12:27.928Z,101679.46
2019-01-06T18:18:07.559Z,101678.41
2019-01-06T18:23:33.797Z,101685.02
2019-01-06T18:28:48.929Z,101679.60
2019-01-06T18:34:10.103Z,101681.50
2019-01-06T18:39:27.344Z,101684.45
2019-01-06T18:44:59.740Z,101685.18
2019-01-06T18:50:20.345Z,101682.18
2019-01-06T18:55:40.295Z,101690.17
2019-01-06T19:01:12.472Z,101687.80
2019-01-06T19:06:33.059Z,101693.09
2019-01-06T19:12:00.781Z,101687.68
2019-01-06T19:17:21.367Z,101687.37
2019-01-06T19:22:39.196Z,101678.22
2019-01-06T19:27:59.296Z,101686.15
2019-01-06T19:33:20.196Z,101685.84
2019-01-06T19:38:40.209Z,101682.27
2019-01-06T19:44:00.442Z,101680.48
2019-01-06T19:49:22.023Z,101675.30
2019-01-06T19:54:41.137Z,101682.58
2019-01-06T20:00:01.217Z,101686.02
2019-01-06T20:05:21.915Z,101679.15
2019-01-06T20:10:41.962Z,101683.40
2019-01-06T20:16:02.051Z,101688.08
2019-01-06T20:21:31.165Z,101680.96
2019-01-06T20:26:52.791Z,101691.05
2019-01-06T20:32:20.548Z,101692.47
2019-01-06T20:37:36.808Z,101692.47
2019-01-06T20:43:07.592Z,101699.33
2019-01-06T20:54:13.640Z,101694.80
2019-01-06T20:59:33.842Z,101691.95
2019-01-06T21:04:55.000Z,101697.08
2019-01-06T21:10:15.435Z,101699.88
2019-01-06T21:15:36.931Z,101697.31
2019-01-06T21:21:04.170Z,101706.89
2019-01-06T21:26:24.299Z,101703.09
2019-01-06T21:31:57.802Z,101698.82
2019-01-06T21:37:28.271Z,101696.27
2019-01-06T21:42:49.304Z,101700.44
2019-01-06T21:48:09.905Z,101699.90
2019-01-06T21:53:34.218Z,101697.49
2019-01-06T21:58:49.973Z,101694.58
2019-01-06T22:04:14.629Z,101691.23
2019-01-06T22:09:39.420Z,101692.16
2019-01-06T22:15:06.998Z,101691.98
2019-01-06T22:20:17.211Z,101682.67
2019-01-06T22:25:32.072Z,101682.20
2019-01-06T22:30:52.294Z,101678.98
2019-01-06T22:36:13.911Z,101674.12
2019-01-06T22:41:43.456Z,101677.07
2019-01-06T22:47:17.481Z,101675.87
2019-01-06T22:52:44.673Z,101669.98
2019-01-06T22:58:08.027Z,101672.73
2019-01-06T23:03:32.829Z,101672.84
2019-01-06T23:08:53.068Z,101670.24
2019-01-06T23:14:14.704Z,101675.39
2019-01-06T23:19:45.388Z,101676.72
2019-01-06T23:25:05.624Z,101675.32
2019-01-06T23:30:33.338Z,101672.52
2019-01-06T23:35:54.943Z,101677.30
2019-01-06T23:41:15.159Z,101675.77
2019-01-06T23:46:42.472Z,101678.90
2019-01-06T23:52:02.997Z,101679.39
2019-01-06T23:57:24.081Z,101683.30
